KPWD/PWD METAR and TAF weather

Enter ICAO airport designator
Station Type Date Time Source
KPWD METAR 2021/05/13 18:55 UTC NOAA

KPWD 131855Z AUTO 31005KT 10SM FEW085 19/M02 A3008 RMK A01


Station Type Date Time Source
KPWD Decoded METAR 2021/05/13 18:55 UTC NOAA

Station name not available
May 13, 2021 - 02:55 PM EDT / 2021.05.13 1855 UTC
Wind: from the NW (310 degrees) at 6 MPH (5 KT):0
Visibility: 10 mile(s):0
Sky conditions: mostly clear
Temperature: 66 F (19 C)
Dew Point: 28 F (-2 C)
Relative Humidity: 24%
Pressure (altimeter): 30.08 in. Hg (1018 hPa)
ob: KPWD 131855Z AUTO 31005KT 10SM FEW085 19/M02 A3008 RMK A01
cycle: 19

Station Type Date Time Source
KPWD TAF UTC NOAA

Error!

Example: see airport list